Terminal Aerodrome Forecast
Issued by NWS

Home | Current Version | Previous Version | Text Only | Print | Product List | Glossary On
Versions: 1 2 3 4 5 6 7 8 9 10 11 12 13 14 15
000
FTUS45 KRIW 061503 AAA
TAFCPR
TAF AMD
KCPR 061503Z 0615/0712 03006KT 4SM BR BKN012 OVC020
      TEMPO 0615/0618 2SM -RA BR BKN008
     FM061800 02008KT P6SM VCSH SCT008 OVC020
     FM062100 05007KT P6SM SCT025 BKN040
     FM070300 10006KT P6SM FEW005 SCT020 BKN040
     FM070800 VRB05KT P6SM VCFG SCT010 SCT040=

USA.gov is the U.S. government's official web portal to all federal, state and local government web resources and services.